createdAt,value
2018-11-10T00:02:12.125Z,83.03
2018-11-10T00:04:39.462Z,96.55
2018-11-10T00:07:06.844Z,102.67
2018-11-10T00:09:34.116Z,91.22
2018-11-10T00:12:01.392Z,109.72
2018-11-10T00:14:28.648Z,94.07
2018-11-10T00:16:55.920Z,77.87
2018-11-10T00:19:23.204Z,82.97
2018-11-10T00:21:50.470Z,98.30
2018-11-10T00:24:17.884Z,92.30
2018-11-10T00:26:45.172Z,91.53
2018-11-10T00:29:12.468Z,102.07
2018-11-10T00:31:39.781Z,75.72
2018-11-10T00:34:07.081Z,70.95
2018-11-10T00:36:34.369Z,86.72
2018-11-10T00:39:01.683Z,89.60
2018-11-10T00:41:28.960Z,87.83
2018-11-10T00:43:56.260Z,74.40
2018-11-10T00:46:23.553Z,77.12
2018-11-10T00:48:50.844Z,90.50
2018-11-10T00:51:18.128Z,77.95
2018-11-10T00:53:45.481Z,78.10
2018-11-10T00:56:12.772Z,74.25
2018-11-10T00:58:40.141Z,78.02
2018-11-10T01:01:07.435Z,76.70
2018-11-10T01:03:34.740Z,72.77
2018-11-10T01:06:02.012Z,72.15
2018-11-10T01:08:29.317Z,70.40
2018-11-10T01:10:56.652Z,70.50
2018-11-10T01:13:23.925Z,70.28
2018-11-10T01:15:51.259Z,60.60
2018-11-10T01:18:18.544Z,83.37
2018-11-10T01:20:45.813Z,64.50
2018-11-10T01:23:13.091Z,71.42
2018-11-10T01:25:40.348Z,75.37
2018-11-10T01:28:07.669Z,66.92
2018-11-10T01:30:35.011Z,79.33
2018-11-10T01:33:02.306Z,75.10
2018-11-10T01:35:29.616Z,72.00
2018-11-10T01:37:56.884Z,69.70
2018-11-10T01:40:24.159Z,73.57
2018-11-10T01:42:51.416Z,63.15
2018-11-10T01:45:18.705Z,64.90
2018-11-10T01:47:46.438Z,65.47
2018-11-10T01:50:13.782Z,68.72
2018-11-10T01:52:41.545Z,71.67
2018-11-10T01:55:09.637Z,69.45
2018-11-10T01:57:37.008Z,70.63
2018-11-10T02:00:07.555Z,75.35
2018-11-10T02:02:34.864Z,66.90
2018-11-10T02:05:02.141Z,67.62
2018-11-10T02:07:29.409Z,68.55
2018-11-10T02:09:56.697Z,65.77
2018-11-10T02:12:23.974Z,56.75
2018-11-10T02:14:51.278Z,69.95
2018-11-10T02:17:18.545Z,58.73
2018-11-10T02:19:45.912Z,64.00
2018-11-10T02:22:13.232Z,72.32
2018-11-10T02:24:40.530Z,67.67
2018-11-10T02:27:12.485Z,63.87
2018-11-10T02:29:39.764Z,69.47
2018-11-10T02:32:07.062Z,70.05
2018-11-10T02:34:34.329Z,64.40
2018-11-10T02:37:01.621Z,69.67
2018-11-10T02:39:28.905Z,72.10
2018-11-10T02:41:56.192Z,70.47
2018-11-10T02:44:23.485Z,80.43
2018-11-10T02:46:50.800Z,79.72
2018-11-10T02:49:18.092Z,68.90
2018-11-10T02:51:45.378Z,81.70
2018-11-10T02:54:12.650Z,84.75
2018-11-10T02:56:39.918Z,84.90
2018-11-10T02:59:07.194Z,80.05
2018-11-10T03:01:34.493Z,89.47
2018-11-10T03:04:01.765Z,80.67
2018-11-10T03:06:29.041Z,82.17
2018-11-10T03:08:56.332Z,82.53
2018-11-10T03:11:23.637Z,85.40
2018-11-10T03:13:50.906Z,87.42
2018-11-10T03:16:18.296Z,85.87
2018-11-10T03:18:45.520Z,86.10
2018-11-10T03:21:12.813Z,107.70
2018-11-10T03:23:40.083Z,100.83
2018-11-10T03:26:07.373Z,86.15
2018-11-10T03:28:34.676Z,104.97
2018-11-10T03:31:01.940Z,97.67
2018-11-10T03:33:29.208Z,94.32
2018-11-10T03:35:56.499Z,97.82
2018-11-10T03:38:23.780Z,100.25
2018-11-10T03:40:51.090Z,84.85
2018-11-10T03:43:18.375Z,83.05
2018-11-10T03:45:45.721Z,71.60
2018-11-10T03:48:12.984Z,75.17
2018-11-10T03:50:40.249Z,72.72
2018-11-10T03:53:07.557Z,68.67
2018-11-10T03:55:34.828Z,79.75
2018-11-10T03:58:02.109Z,73.92
2018-11-10T04:00:29.407Z,71.55
2018-11-10T04:02:56.715Z,74.20
2018-11-10T04:05:23.985Z,75.12
2018-11-10T04:07:51.304Z,78.05
2018-11-10T04:10:18.564Z,79.63
2018-11-10T04:12:45.839Z,72.50
2018-11-10T04:15:13.144Z,64.77
2018-11-10T04:17:40.464Z,65.42
2018-11-10T04:20:08.672Z,74.97
2018-11-10T04:22:36.852Z,74.60
2018-11-10T04:25:06.372Z,67.63
2018-11-10T04:27:34.005Z,68.57
2018-11-10T04:30:02.081Z,71.92
2018-11-10T04:32:29.421Z,60.40
2018-11-10T04:34:56.685Z,62.07
2018-11-10T04:37:24.446Z,54.57
2018-11-10T04:39:51.728Z,62.88
2018-11-10T04:42:18.999Z,64.55
2018-11-10T04:44:46.309Z,53.27
2018-11-10T04:47:13.613Z,55.90
2018-11-10T04:49:40.954Z,59.20
2018-11-10T04:52:08.777Z,57.17
2018-11-10T04:54:36.032Z,58.00
2018-11-10T04:57:03.312Z,53.60
2018-11-10T04:59:30.608Z,45.60
2018-11-10T05:01:57.964Z,51.17
2018-11-10T05:04:25.236Z,53.75
2018-11-10T05:06:52.544Z,49.58
2018-11-10T05:09:19.836Z,50.33
2018-11-10T05:11:47.116Z,55.10
2018-11-10T05:14:14.432Z,59.30
2018-11-10T05:16:41.709Z,53.60
2018-11-10T05:19:08.966Z,62.27
2018-11-10T05:21:37.061Z,55.08
2018-11-10T05:24:04.804Z,47.50
2018-11-10T05:26:32.115Z,50.08
2018-11-10T05:28:59.384Z,52.03
2018-11-10T05:31:26.660Z,46.88
2018-11-10T05:33:53.916Z,50.65
2018-11-10T05:36:21.184Z,48.48
2018-11-10T05:38:48.476Z,58.20
2018-11-10T05:41:15.757Z,48.70
2018-11-10T05:43:43.028Z,52.53
2018-11-10T05:46:10.304Z,48.20
2018-11-10T05:48:37.569Z,57.40
2018-11-10T05:51:04.888Z,58.70
2018-11-10T05:53:32.156Z,57.48
2018-11-10T05:55:59.454Z,59.25
2018-11-10T05:58:26.748Z,57.90
2018-11-10T06:00:54.020Z,60.85
2018-11-10T06:03:21.367Z,54.00
2018-11-10T06:05:48.637Z,54.73
2018-11-10T06:08:15.897Z,60.25
2018-11-10T06:10:43.249Z,59.23
2018-11-10T06:13:10.504Z,55.75
2018-11-10T06:15:37.843Z,57.17
2018-11-10T06:18:05.120Z,59.60
2018-11-10T06:20:32.396Z,58.45
2018-11-10T06:22:59.700Z,57.33
2018-11-10T06:25:26.984Z,56.65
2018-11-10T06:27:54.281Z,63.28
2018-11-10T06:30:21.544Z,59.03
2018-11-10T06:32:48.822Z,59.80
2018-11-10T06:35:16.091Z,64.32
2018-11-10T06:37:43.369Z,71.07
2018-11-10T06:40:11.969Z,74.03
2018-11-10T06:42:39.646Z,56.85
2018-11-10T06:45:07.009Z,63.35
2018-11-10T06:47:34.559Z,63.65
2018-11-10T06:50:01.872Z,65.22
2018-11-10T06:52:29.158Z,58.92
2018-11-10T06:54:56.426Z,60.65
2018-11-10T06:57:23.700Z,66.40
2018-11-10T06:59:50.961Z,55.52
2018-11-10T07:02:18.248Z,63.75
2018-11-10T07:04:45.511Z,70.95
2018-11-10T07:07:12.788Z,68.35
2018-11-10T07:09:40.077Z,70.90
2018-11-10T07:12:07.416Z,58.73
2018-11-10T07:14:34.681Z,69.70
2018-11-10T07:17:02.085Z,61.20
2018-11-10T07:19:29.352Z,59.50
2018-11-10T07:21:56.628Z,63.48
2018-11-10T07:24:23.905Z,63.60
2018-11-10T07:26:51.198Z,57.67
2018-11-10T07:29:18.492Z,51.37
2018-11-10T07:31:45.925Z,53.38
2018-11-10T07:34:13.322Z,53.33
2018-11-10T07:36:40.584Z,60.75
2018-11-10T07:39:08.798Z,55.00
2018-11-10T07:41:36.069Z,57.60
2018-11-10T07:44:03.394Z,53.02
2018-11-10T07:46:30.665Z,48.65
2018-11-10T07:48:57.953Z,52.30
2018-11-10T07:51:25.317Z,54.10
2018-11-10T07:53:52.510Z,49.03
2018-11-10T07:56:19.793Z,50.78
2018-11-10T07:58:47.075Z,50.70
2018-11-10T08:01:14.350Z,51.42
2018-11-10T08:03:41.644Z,56.00
2018-11-10T08:06:08.962Z,54.03
2018-11-10T08:08:36.244Z,61.90
2018-11-10T08:11:03.592Z,47.90
2018-11-10T08:13:30.873Z,46.08
2018-11-10T08:15:58.140Z,54.05
2018-11-10T08:18:25.453Z,48.28
2018-11-10T08:20:52.722Z,45.45
2018-11-10T08:23:20.013Z,40.80
2018-11-10T08:25:47.305Z,44.65
2018-11-10T08:28:14.585Z,46.77
2018-11-10T08:30:41.880Z,46.65
2018-11-10T08:33:09.166Z,45.03
2018-11-10T08:35:36.465Z,40.20
2018-11-10T08:38:03.752Z,48.38
2018-11-10T08:40:31.039Z,50.65
2018-11-10T08:42:58.316Z,45.15
2018-11-10T08:45:25.604Z,43.63
2018-11-10T08:47:52.875Z,41.00
2018-11-10T08:50:20.161Z,44.45
2018-11-10T08:52:47.437Z,50.90
2018-11-10T08:55:14.728Z,42.98
2018-11-10T08:57:42.616Z,37.88
2018-11-10T09:00:10.381Z,43.23
2018-11-10T09:02:37.757Z,39.60
2018-11-10T09:05:06.254Z,42.47
2018-11-10T09:07:33.518Z,35.83
2018-11-10T09:10:00.941Z,43.13
2018-11-10T09:12:28.076Z,43.00
2018-11-10T09:14:55.385Z,39.95
2018-11-10T09:17:22.648Z,40.40
2018-11-10T09:19:49.916Z,37.00
2018-11-10T09:22:17.192Z,34.50
2018-11-10T09:24:44.505Z,37.78
2018-11-10T09:27:12.321Z,33.07
2018-11-10T09:29:42.163Z,34.90
2018-11-10T09:32:09.528Z,40.35
2018-11-10T09:34:36.808Z,37.15
2018-11-10T09:37:04.308Z,35.03
2018-11-10T09:39:31.576Z,36.00
2018-11-10T09:41:58.902Z,35.33
2018-11-10T09:44:26.152Z,31.55
2018-11-10T09:46:53.441Z,37.88
2018-11-10T09:49:20.721Z,49.47
2018-11-10T09:51:48.000Z,42.63
2018-11-10T09:54:15.269Z,32.20
2018-11-10T09:56:42.631Z,30.50
2018-11-10T09:59:09.905Z,34.95
2018-11-10T10:01:37.386Z,29.47
2018-11-10T10:04:05.037Z,35.07
2018-11-10T10:06:32.417Z,34.97
2018-11-10T10:08:59.786Z,38.20
2018-11-10T10:11:26.984Z,33.83
2018-11-10T10:13:54.284Z,30.37
2018-11-10T10:16:21.687Z,30.43
2018-11-10T10:18:48.813Z,32.42
2018-11-10T10:21:16.081Z,29.00
2018-11-10T10:23:43.352Z,57.03
2018-11-10T10:26:10.630Z,38.77
2018-11-10T10:28:38.031Z,64.40
2018-11-10T10:31:05.268Z,30.13
2018-11-10T10:33:32.536Z,30.93
2018-11-10T10:35:59.809Z,28.40
2018-11-10T10:38:27.085Z,30.27
2018-11-10T10:40:54.352Z,31.57
2018-11-10T10:43:21.633Z,30.40
2018-11-10T10:45:48.888Z,29.80
2018-11-10T10:48:16.168Z,29.47
2018-11-10T10:50:43.446Z,32.63
2018-11-10T10:53:10.728Z,29.27
2018-11-10T10:55:38.032Z,31.90
2018-11-10T10:58:05.924Z,32.10
2018-11-10T11:00:38.804Z,29.90
2018-11-10T11:03:11.870Z,34.90
2018-11-10T11:05:43.327Z,31.50
2018-11-10T11:08:10.658Z,41.80
2018-11-10T11:10:37.932Z,32.43
2018-11-10T11:13:05.374Z,31.80
2018-11-10T11:15:32.719Z,36.00
2018-11-10T11:17:59.933Z,30.73
2018-11-10T11:20:27.211Z,30.87
2018-11-10T11:22:54.477Z,30.60
2018-11-10T11:25:21.754Z,35.53
2018-11-10T11:27:49.028Z,32.10
2018-11-10T11:30:16.320Z,33.10
2018-11-10T11:32:43.582Z,32.70
2018-11-10T11:35:12.103Z,29.27
2018-11-10T11:37:40.013Z,29.40
2018-11-10T11:40:09.012Z,34.93
2018-11-10T11:42:36.590Z,28.20
2018-11-10T11:45:04.676Z,35.20
2018-11-10T11:47:31.941Z,38.00
2018-11-10T11:49:59.339Z,43.30
2018-11-10T11:52:26.504Z,31.90
2018-11-10T11:54:53.837Z,29.70
2018-11-10T11:57:21.105Z,32.80
2018-11-10T11:59:48.408Z,34.10
2018-11-10T12:02:15.753Z,35.40
2018-11-10T12:04:43.135Z,36.93
2018-11-10T12:07:10.408Z,33.60
2018-11-10T12:09:37.695Z,35.97
2018-11-10T12:12:05.092Z,35.73
2018-11-10T12:14:32.356Z,34.97
2018-11-10T12:16:59.708Z,39.63
2018-11-10T12:19:27.268Z,52.80
2018-11-10T12:21:54.535Z,35.90
2018-11-10T12:24:21.813Z,35.20
2018-11-10T12:26:49.176Z,41.20
2018-11-10T12:29:16.357Z,38.97
2018-11-10T12:31:43.664Z,38.00
2018-11-10T12:34:10.935Z,34.83
2018-11-10T12:36:38.206Z,38.17
2018-11-10T12:39:06.545Z,36.03
2018-11-10T12:41:33.824Z,36.80
2018-11-10T12:44:01.080Z,43.60
2018-11-10T12:46:28.360Z,43.00
2018-11-10T12:48:55.729Z,40.40
2018-11-10T12:51:23.344Z,44.03
2018-11-10T12:53:50.612Z,41.90
2018-11-10T12:56:17.875Z,48.40
2018-11-10T12:58:45.138Z,45.30
2018-11-10T13:01:12.435Z,35.27
2018-11-10T13:03:39.775Z,35.07
2018-11-10T13:06:07.015Z,38.53
2018-11-10T13:08:34.280Z,39.70
2018-11-10T13:11:01.651Z,37.00
2018-11-10T13:13:28.821Z,35.70
2018-11-10T13:15:56.126Z,34.73
2018-11-10T13:18:23.398Z,36.50
2018-11-10T13:20:50.729Z,45.73
2018-11-10T13:23:17.942Z,34.13
2018-11-10T13:25:45.192Z,42.50
2018-11-10T13:28:12.464Z,41.20
2018-11-10T13:30:39.734Z,32.50
2018-11-10T13:33:07.233Z,33.60
2018-11-10T13:35:34.528Z,37.73
2018-11-10T13:38:01.844Z,43.10
2018-11-10T13:40:29.080Z,49.70
2018-11-10T13:42:56.393Z,47.80
2018-11-10T13:45:23.619Z,51.13
2018-11-10T13:47:51.204Z,48.33
2018-11-10T13:50:18.489Z,59.47
2018-11-10T13:52:46.338Z,33.93
2018-11-10T13:55:13.460Z,34.80
2018-11-10T13:57:40.740Z,47.53
2018-11-10T14:00:11.620Z,36.60
2018-11-10T14:02:38.904Z,34.30
2018-11-10T14:05:06.409Z,38.80
2018-11-10T14:07:33.900Z,45.13
2018-11-10T14:10:01.185Z,41.40
2018-11-10T14:12:28.472Z,44.03
2018-11-10T14:14:55.727Z,40.30
2018-11-10T14:17:22.983Z,36.57
2018-11-10T14:19:50.392Z,42.67
2018-11-10T14:22:17.714Z,31.83
2018-11-10T14:24:45.005Z,43.57
2018-11-10T14:27:12.288Z,49.93
2018-11-10T14:29:39.552Z,51.43
2018-11-10T14:32:06.854Z,50.93
2018-11-10T14:34:34.119Z,41.97
2018-11-10T14:37:01.392Z,38.67
2018-11-10T14:39:28.677Z,37.57
2018-11-10T14:41:55.964Z,39.00
2018-11-10T14:44:23.232Z,59.60
2018-11-10T14:46:50.505Z,38.00
2018-11-10T14:49:17.792Z,38.73
2018-11-10T14:51:45.068Z,35.30
2018-11-10T14:54:12.344Z,44.23
2018-11-10T14:56:39.610Z,38.00
2018-11-10T14:59:06.888Z,38.23
2018-11-10T15:01:34.153Z,37.80
2018-11-10T15:04:01.525Z,32.47
2018-11-10T15:06:28.793Z,32.07
2018-11-10T15:08:56.080Z,33.13
2018-11-10T15:11:23.380Z,28.63
2018-11-10T15:13:50.620Z,31.33
2018-11-10T15:16:17.900Z,30.37
2018-11-10T15:18:45.182Z,31.83
2018-11-10T15:21:12.453Z,33.60
2018-11-10T15:23:39.734Z,31.47
2018-11-10T15:26:07.029Z,33.30
2018-11-10T15:28:34.298Z,31.90
2018-11-10T15:31:01.665Z,39.07
2018-11-10T15:33:28.971Z,43.07
2018-11-10T15:35:56.253Z,39.83
2018-11-10T15:38:23.530Z,42.47
2018-11-10T15:40:50.806Z,38.37
2018-11-10T15:43:18.077Z,31.90
2018-11-10T15:45:45.355Z,34.40
2018-11-10T15:48:12.611Z,29.23
2018-11-10T15:50:39.949Z,40.40
2018-11-10T15:53:07.217Z,38.00
2018-11-10T15:55:34.485Z,31.90
2018-11-10T15:58:01.744Z,30.80
2018-11-10T16:00:29.020Z,32.57
2018-11-10T16:02:56.272Z,34.30
2018-11-10T16:05:23.550Z,32.17
2018-11-10T16:07:50.816Z,30.67
2018-11-10T16:10:18.153Z,39.47
2018-11-10T16:12:45.464Z,45.83
2018-11-10T16:15:14.388Z,42.00
2018-11-10T16:17:41.804Z,51.30
2018-11-10T16:20:11.957Z,49.10
2018-11-10T16:22:39.492Z,50.20
2018-11-10T16:25:07.685Z,46.40
2018-11-10T16:27:35.245Z,39.57
2018-11-10T16:30:02.610Z,35.80
2018-11-10T16:32:29.925Z,35.63
2018-11-10T16:34:57.236Z,31.70
2018-11-10T16:37:24.531Z,39.80
2018-11-10T16:39:51.893Z,35.33
2018-11-10T16:42:19.190Z,31.93
2018-11-10T16:44:46.480Z,37.20
2018-11-10T16:47:13.785Z,47.33
2018-11-10T16:49:41.084Z,53.47
2018-11-10T16:52:08.369Z,52.53
2018-11-10T16:54:35.641Z,59.23
2018-11-10T16:57:03.052Z,63.67
2018-11-10T16:59:30.404Z,380.97
2018-11-10T17:01:57.827Z,292.63
2018-11-10T17:04:25.093Z,128.20
2018-11-10T17:06:52.410Z,51.13
2018-11-10T17:09:19.725Z,46.07
2018-11-10T17:11:46.996Z,39.37
2018-11-10T17:14:14.323Z,38.70
2018-11-10T17:16:41.540Z,36.47
2018-11-10T17:19:09.600Z,44.73
2018-11-10T17:21:37.004Z,41.67
2018-11-10T17:24:04.353Z,44.07
2018-11-10T17:26:31.859Z,48.73
2018-11-10T17:28:59.223Z,46.57
2018-11-10T17:31:26.500Z,52.23
2018-11-10T17:33:53.888Z,66.80
2018-11-10T17:36:21.302Z,60.23
2018-11-10T17:38:48.689Z,52.00
2018-11-10T17:41:16.158Z,42.47
2018-11-10T17:43:43.525Z,49.03
2018-11-10T17:46:10.849Z,51.30
2018-11-10T17:48:38.228Z,48.03
2018-11-10T17:51:05.503Z,40.17
2018-11-10T17:53:32.777Z,41.50
2018-11-10T17:56:00.084Z,41.13
2018-11-10T17:58:27.374Z,34.17
2018-11-10T18:00:54.684Z,38.63
2018-11-10T18:03:21.928Z,39.33
2018-11-10T18:05:49.185Z,39.17
2018-11-10T18:08:16.485Z,39.60
2018-11-10T18:10:43.743Z,42.70
2018-11-10T18:13:11.266Z,56.50
2018-11-10T18:15:38.537Z,58.77
2018-11-10T18:18:05.880Z,39.57
2018-11-10T18:20:33.143Z,39.17
2018-11-10T18:23:00.418Z,40.70
2018-11-10T18:25:27.776Z,43.53
2018-11-10T18:27:54.997Z,38.93
2018-11-10T18:30:22.278Z,41.40
2018-11-10T18:32:49.583Z,53.77
2018-11-10T18:35:17.068Z,48.97
2018-11-10T18:37:44.452Z,48.90
2018-11-10T18:40:11.873Z,47.73
2018-11-10T18:42:39.021Z,40.77
2018-11-10T18:45:07.313Z,40.67
2018-11-10T18:47:34.817Z,39.77
2018-11-10T18:50:03.339Z,45.30
2018-11-10T18:52:30.702Z,38.87
2018-11-10T18:54:58.079Z,43.27
2018-11-10T18:57:25.640Z,45.13
2018-11-10T18:59:52.740Z,44.40
2018-11-10T19:02:20.004Z,46.40
2018-11-10T19:04:47.346Z,42.40
2018-11-10T19:07:14.604Z,36.93
2018-11-10T19:09:42.031Z,50.53
2018-11-10T19:12:09.312Z,42.10
2018-11-10T19:14:36.726Z,39.33
2018-11-10T19:17:04.029Z,44.98
2018-11-10T19:19:31.309Z,45.07
2018-11-10T19:21:58.601Z,41.93
2018-11-10T19:24:25.869Z,42.00
2018-11-10T19:26:53.270Z,40.17
2018-11-10T19:29:20.603Z,44.97
2018-11-10T19:31:47.852Z,42.30
2018-11-10T19:34:15.108Z,42.30
2018-11-10T19:36:42.373Z,42.33
2018-11-10T19:39:11.062Z,42.07
2018-11-10T19:41:38.345Z,46.60
2018-11-10T19:44:06.388Z,41.93
2018-11-10T19:46:33.657Z,38.13
2018-11-10T19:49:00.945Z,37.90
2018-11-10T19:51:28.390Z,41.87
2018-11-10T19:53:55.600Z,38.00
2018-11-10T19:56:22.964Z,39.40
2018-11-10T19:58:50.241Z,43.27
2018-11-10T20:01:17.525Z,35.47
2018-11-10T20:03:44.908Z,35.40
2018-11-10T20:06:12.182Z,40.77
2018-11-10T20:08:39.513Z,37.10
2018-11-10T20:11:06.911Z,39.97
2018-11-10T20:13:34.144Z,39.77
2018-11-10T20:16:01.529Z,40.80
2018-11-10T20:18:28.830Z,46.00
2018-11-10T20:20:56.262Z,38.97
2018-11-10T20:23:23.528Z,36.80
2018-11-10T20:25:50.833Z,43.80
2018-11-10T20:28:18.312Z,43.80
2018-11-10T20:30:45.607Z,39.47
2018-11-10T20:33:13.088Z,39.30
2018-11-10T20:35:40.397Z,37.17
2018-11-10T20:38:07.845Z,39.13
2018-11-10T20:40:35.156Z,40.83
2018-11-10T20:43:02.532Z,39.90
2018-11-10T20:45:29.820Z,46.73
2018-11-10T20:47:57.097Z,45.50
2018-11-10T20:50:24.436Z,47.33
2018-11-10T20:52:51.713Z,47.60
2018-11-10T20:55:19.066Z,40.10
2018-11-10T20:57:46.340Z,45.00
2018-11-10T21:00:16.188Z,62.40
2018-11-10T21:02:43.896Z,73.10
2018-11-10T21:05:11.920Z,53.67
2018-11-10T21:07:39.208Z,59.37
2018-11-10T21:10:08.616Z,56.00
2018-11-10T21:12:35.905Z,47.37
2018-11-10T21:15:03.249Z,39.90
2018-11-10T21:17:30.538Z,47.50
2018-11-10T21:19:57.884Z,44.87
2018-11-10T21:22:25.185Z,46.77
2018-11-10T21:24:52.492Z,43.30
2018-11-10T21:27:19.800Z,44.90
2018-11-10T21:29:47.260Z,38.50
2018-11-10T21:32:14.461Z,43.50
2018-11-10T21:34:41.865Z,37.13
2018-11-10T21:37:09.170Z,38.70
2018-11-10T21:39:36.436Z,39.10
2018-11-10T21:42:03.752Z,40.60
2018-11-10T21:44:31.047Z,48.33
2018-11-10T21:46:58.402Z,44.20
2018-11-10T21:49:25.737Z,42.83
2018-11-10T21:51:53.118Z,48.63
2018-11-10T21:54:20.485Z,47.20
2018-11-10T21:56:47.780Z,44.17
2018-11-10T21:59:15.064Z,48.77
2018-11-10T22:01:42.320Z,48.43
2018-11-10T22:04:09.578Z,53.73
2018-11-10T22:06:36.832Z,49.67
2018-11-10T22:09:07.598Z,56.30
2018-11-10T22:11:34.836Z,44.07
2018-11-10T22:14:02.149Z,56.50
2018-11-10T22:16:29.421Z,53.40
2018-11-10T22:18:56.696Z,55.73
2018-11-10T22:21:24.056Z,58.13
2018-11-10T22:23:51.349Z,61.00
2018-11-10T22:26:18.721Z,50.90
2018-11-10T22:28:46.124Z,48.73
2018-11-10T22:31:13.471Z,58.87
2018-11-10T22:33:40.706Z,56.83
2018-11-10T22:36:07.961Z,65.90
2018-11-10T22:38:35.224Z,61.90
2018-11-10T22:41:02.493Z,63.30
2018-11-10T22:43:29.768Z,49.07
2018-11-10T22:45:57.024Z,51.87
2018-11-10T22:48:24.325Z,53.00
2018-11-10T22:50:51.600Z,61.03
2018-11-10T22:53:18.905Z,57.85
2018-11-10T22:55:46.209Z,52.27
2018-11-10T22:58:13.512Z,53.97
2018-11-10T23:00:46.368Z,55.30
2018-11-10T23:03:13.705Z,51.83
2018-11-10T23:05:41.065Z,53.20
2018-11-10T23:08:08.359Z,53.00
2018-11-10T23:10:35.640Z,48.67
2018-11-10T23:13:02.999Z,51.37
2018-11-10T23:15:30.281Z,60.40
2018-11-10T23:17:57.547Z,47.87
2018-11-10T23:20:24.828Z,60.80
2018-11-10T23:22:52.105Z,48.93
2018-11-10T23:25:19.488Z,48.80
2018-11-10T23:27:46.831Z,53.37
2018-11-10T23:30:16.436Z,49.47
2018-11-10T23:32:43.733Z,48.17
2018-11-10T23:35:11.572Z,50.30
2018-11-10T23:37:39.104Z,54.73
2018-11-10T23:40:08.022Z,53.70
2018-11-10T23:42:35.272Z,54.10
2018-11-10T23:45:02.947Z,55.10
2018-11-10T23:47:30.210Z,51.60
2018-11-10T23:49:57.500Z,49.40
2018-11-10T23:52:24.752Z,47.87
2018-11-10T23:54:52.052Z,52.40
2018-11-10T23:57:19.300Z,54.53
2018-11-10T23:59:46.618Z,48.73
